sensor_id;sensor_type;location;lat;lon;timestamp;pressure;altitude;pressure_sealevel;temperature;humidity
23619;BME280;18207;32.078;34.818;2024-02-04T00:01:14;101746.06;;;19.79;47.84
23619;BME280;18207;32.078;34.818;2024-02-04T00:03:45;101737.41;;;19.81;47.97
23619;BME280;18207;32.078;34.818;2024-02-04T00:06:15;101745.44;;;19.82;48.11
23619;BME280;18207;32.078;34.818;2024-02-04T00:08:45;101745.97;;;19.84;48.52
23619;BME280;18207;32.078;34.818;2024-02-04T00:11:15;101753.72;;;19.87;48.12
23619;BME280;18207;32.078;34.818;2024-02-04T00:13:45;101766.25;;;19.90;48.65
23619;BME280;18207;32.078;34.818;2024-02-04T00:16:15;101777.09;;;19.91;47.95
23619;BME280;18207;32.078;34.818;2024-02-04T00:18:46;101799.94;;;19.93;48.03
23619;BME280;18207;32.078;34.818;2024-02-04T00:21:16;101798.78;;;19.94;48.11
23619;BME280;18207;32.078;34.818;2024-02-04T00:23:46;101793.22;;;19.94;48.00
23619;BME280;18207;32.078;34.818;2024-02-04T00:26:16;101787.63;;;19.94;48.42
23619;BME280;18207;32.078;34.818;2024-02-04T00:28:46;101782.34;;;19.93;48.09
23619;BME280;18207;32.078;34.818;2024-02-04T00:31:16;101778.22;;;19.90;48.34
23619;BME280;18207;32.078;34.818;2024-02-04T00:33:49;101774.09;;;19.88;48.03
23619;BME280;18207;32.078;34.818;2024-02-04T00:36:32;101775.53;;;19.85;48.05
23619;BME280;18207;32.078;34.818;2024-02-04T00:39:02;101770.56;;;19.82;48.44
23619;BME280;18207;32.078;34.818;2024-02-04T00:41:33;101774.47;;;19.81;48.22
23619;BME280;18207;32.078;34.818;2024-02-04T00:44:03;101782.31;;;19.79;47.98
23619;BME280;18207;32.078;34.818;2024-02-04T00:46:33;101803.81;;;19.79;48.24
23619;BME280;18207;32.078;34.818;2024-02-04T00:49:04;101802.97;;;19.78;48.68
23619;BME280;18207;32.078;34.818;2024-02-04T00:51:34;101808.53;;;19.78;48.15
23619;BME280;18207;32.078;34.818;2024-02-04T00:54:04;101785.09;;;19.79;48.55
23619;BME280;18207;32.078;34.818;2024-02-04T00:56:34;101782.31;;;19.79;48.51
23619;BME280;18207;32.078;34.818;2024-02-04T00:59:06;101790.69;;;19.79;48.22
23619;BME280;18207;32.078;34.818;2024-02-04T01:01:35;101788.72;;;19.80;48.70
23619;BME280;18207;32.078;34.818;2024-02-04T01:04:07;101787.06;;;19.79;48.22
23619;BME280;18207;32.078;34.818;2024-02-04T01:06:38;101785.94;;;19.80;48.23
23619;BME280;18207;32.078;34.818;2024-02-04T01:09:27;101784.81;;;19.81;48.59
23619;BME280;18207;32.078;34.818;2024-02-04T01:11:57;101780.91;;;19.82;48.12
23619;BME280;18207;32.078;34.818;2024-02-04T01:14:28;101777.25;;;19.81;48.36
23619;BME280;18207;32.078;34.818;2024-02-04T01:16:57;101774.47;;;19.81;48.53
23619;BME280;18207;32.078;34.818;2024-02-04T01:19:28;101774.47;;;19.81;48.01
23619;BME280;18207;32.078;34.818;2024-02-04T01:21:58;101775.91;;;19.79;48.03
23619;BME280;18207;32.078;34.818;2024-02-04T01:24:28;101775.38;;;19.77;48.37
23619;BME280;18207;32.078;34.818;2024-02-04T01:26:59;101774.88;;;19.75;48.49
23619;BME280;18207;32.078;34.818;2024-02-04T01:29:29;101774.34;;;19.73;47.99
23619;BME280;18207;32.078;34.818;2024-02-04T01:31:59;101767.13;;;19.72;47.92
23619;BME280;18207;32.078;34.818;2024-02-04T01:34:30;101761.84;;;19.71;48.30
23619;BME280;18207;32.078;34.818;2024-02-04T01:37:00;101763.81;;;19.70;48.53
23619;BME280;18207;32.078;34.818;2024-02-04T01:39:32;101756.88;;;19.68;48.34
23619;BME280;18207;32.078;34.818;2024-02-04T01:42:02;101752.44;;;19.67;48.03
23619;BME280;18207;32.078;34.818;2024-02-04T01:44:34;101745.22;;;19.66;48.24
23619;BME280;18207;32.078;34.818;2024-02-04T01:47:04;101743.84;;;19.63;48.11
23619;BME280;18207;32.078;34.818;2024-02-04T01:49:37;101740.22;;;19.63;48.05
23619;BME280;18207;32.078;34.818;2024-02-04T01:52:09;101751.69;;;19.61;48.59
23619;BME280;18207;32.078;34.818;2024-02-04T01:54:42;101748.91;;;19.61;47.99
23619;BME280;18207;32.078;34.818;2024-02-04T01:57:13;101736.09;;;19.60;48.54
23619;BME280;18207;32.078;34.818;2024-02-04T01:59:45;101743.63;;;19.60;48.50
23619;BME280;18207;32.078;34.818;2024-02-04T02:02:19;101741.97;;;19.59;48.13
23619;BME280;18207;32.078;34.818;2024-02-04T02:04:51;101738.69;;;19.57;47.85
23619;BME280;18207;32.078;34.818;2024-02-04T02:07:21;101734.22;;;19.56;48.00
23619;BME280;18207;32.078;34.818;2024-02-04T02:09:53;101730.59;;;19.55;48.08
23619;BME280;18207;32.078;34.818;2024-02-04T02:12:26;101729.47;;;19.56;48.06
23619;BME280;18207;32.078;34.818;2024-02-04T02:15:06;101723.06;;;19.56;48.04
23619;BME280;18207;32.078;34.818;2024-02-04T02:17:47;101730.59;;;19.55;48.34
23619;BME280;18207;32.078;34.818;2024-02-04T02:20:25;101732.25;;;19.56;48.05
23619;BME280;18207;32.078;34.818;2024-02-04T02:23:06;101720.56;;;19.54;48.12
23619;BME280;18207;32.078;34.818;2024-02-04T02:25:39;101715.31;;;19.53;47.79
23619;BME280;18207;32.078;34.818;2024-02-04T02:28:10;101708.94;;;19.52;47.90
23619;BME280;18207;32.078;34.818;2024-02-04T02:30:40;101721.50;;;19.50;47.55
23619;BME280;18207;32.078;34.818;2024-02-04T02:33:10;101723.47;;;19.49;47.65
23619;BME280;18207;32.078;34.818;2024-02-04T02:35:40;101718.50;;;19.46;47.44
23619;BME280;18207;32.078;34.818;2024-02-04T02:38:20;101729.09;;;19.44;47.51
23619;BME280;18207;32.078;34.818;2024-02-04T02:40:59;101724.97;;;19.42;47.10
23619;BME280;18207;32.078;34.818;2024-02-04T02:43:30;101732.00;;;19.39;47.73
23619;BME280;18207;32.078;34.818;2024-02-04T02:46:02;101743.47;;;19.38;47.79
23619;BME280;18207;32.078;34.818;2024-02-04T02:48:32;101738.16;;;19.36;47.34
23619;BME280;18207;32.078;34.818;2024-02-04T02:51:03;101737.34;;;19.36;47.57
23619;BME280;18207;32.078;34.818;2024-02-04T02:53:34;101727.03;;;19.36;47.40
23619;BME280;18207;32.078;34.818;2024-02-04T02:56:06;101721.44;;;19.36;47.83
23619;BME280;18207;32.078;34.818;2024-02-04T02:58:36;101730.94;;;19.35;47.27
23619;BME280;18207;32.078;34.818;2024-02-04T03:01:06;101745.72;;;19.36;47.31
23619;BME280;18207;32.078;34.818;2024-02-04T03:03:36;101746.53;;;19.36;47.55
23619;BME280;18207;32.078;34.818;2024-02-04T03:06:06;101745.41;;;19.37;47.68
23619;BME280;18207;32.078;34.818;2024-02-04T03:08:36;101755.94;;;19.40;47.31
23619;BME280;18207;32.078;34.818;2024-02-04T03:11:07;101762.06;;;19.42;47.44
23619;BME280;18207;32.078;34.818;2024-02-04T03:13:39;101767.00;;;19.45;47.55
23619;BME280;18207;32.078;34.818;2024-02-04T03:16:11;101764.44;;;19.49;47.60
23619;BME280;18207;32.078;34.818;2024-02-04T03:18:42;101760.22;;;19.51;47.72
23619;BME280;18207;32.078;34.818;2024-02-04T03:21:16;101757.13;;;19.53;47.65
23619;BME280;18207;32.078;34.818;2024-02-04T03:23:46;101764.06;;;19.55;47.69
23619;BME280;18207;32.078;34.818;2024-02-04T03:26:18;101776.06;;;19.56;47.12
23619;BME280;18207;32.078;34.818;2024-02-04T03:28:48;101775.53;;;19.54;47.64
23619;BME280;18207;32.078;34.818;2024-02-04T03:31:20;101770.25;;;19.52;47.15
23619;BME280;18207;32.078;34.818;2024-02-04T03:33:51;101773.66;;;19.49;47.12
23619;BME280;18207;32.078;34.818;2024-02-04T03:36:23;101787.06;;;19.47;47.17
23619;BME280;18207;32.078;34.818;2024-02-04T03:38:53;101794.34;;;19.43;47.47
23619;BME280;18207;32.078;34.818;2024-02-04T03:41:25;101806.66;;;19.42;47.09
23619;BME280;18207;32.078;34.818;2024-02-04T03:43:55;101798.03;;;19.39;46.95
23619;BME280;18207;32.078;34.818;2024-02-04T03:46:24;101803.94;;;19.37;46.89
23619;BME280;18207;32.078;34.818;2024-02-04T03:48:54;101803.41;;;19.35;47.51
23619;BME280;18207;32.078;34.818;2024-02-04T03:51:24;101815.69;;;19.34;47.59
23619;BME280;18207;32.078;34.818;2024-02-04T03:53:54;101819.63;;;19.33;47.27
23619;BME280;18207;32.078;34.818;2024-02-04T03:56:26;101826.00;;;19.34;47.60
23619;BME280;18207;32.078;34.818;2024-02-04T03:59:10;101824.88;;;19.35;47.26
23619;BME280;18207;32.078;34.818;2024-02-04T04:01:40;101836.03;;;19.35;47.25
23619;BME280;18207;32.078;34.818;2024-02-04T04:04:13;101838.50;;;19.36;47.49
23619;BME280;18207;32.078;34.818;2024-02-04T04:06:46;101844.63;;;19.38;47.75
23619;BME280;18207;32.078;34.818;2024-02-04T04:09:17;101864.94;;;19.39;47.78
23619;BME280;18207;32.078;34.818;2024-02-04T04:11:51;101862.69;;;19.41;47.69
23619;BME280;18207;32.078;34.818;2024-02-04T04:14:20;101856.28;;;19.40;47.79
23619;BME280;18207;32.078;34.818;2024-02-04T04:16:50;101851.53;;;19.41;47.71
23619;BME280;18207;32.078;34.818;2024-02-04T04:19:20;101852.66;;;19.40;47.64
23619;BME280;18207;32.078;34.818;2024-02-04T04:21:50;101852.97;;;19.38;47.38
23619;BME280;18207;32.078;34.818;2024-02-04T04:24:20;101858.00;;;19.36;47.60
23619;BME280;18207;32.078;34.818;2024-02-04T04:27:00;101868.63;;;19.34;47.06
23619;BME280;18207;32.078;34.818;2024-02-04T04:29:30;101873.97;;;19.31;47.35
23619;BME280;18207;32.078;34.818;2024-02-04T04:32:00;101884.59;;;19.29;47.55
23619;BME280;18207;32.078;34.818;2024-02-04T04:34:30;101893.56;;;19.26;47.69
23619;BME280;18207;32.078;34.818;2024-02-04T04:37:00;101893.03;;;19.24;47.15
23619;BME280;18207;32.078;34.818;2024-02-04T04:39:30;101888.91;;;19.21;47.22
23619;BME280;18207;32.078;34.818;2024-02-04T04:42:01;101878.34;;;19.18;47.73
23619;BME280;18207;32.078;34.818;2024-02-04T04:44:31;101882.56;;;19.16;47.63
23619;BME280;18207;32.078;34.818;2024-02-04T04:47:05;101878.13;;;19.15;47.79
23619;BME280;18207;32.078;34.818;2024-02-04T04:50:09;101876.75;;;19.12;47.81
23619;BME280;18207;32.078;34.818;2024-02-04T04:52:39;101877.31;;;19.09;47.73
23619;BME280;18207;32.078;34.818;2024-02-04T04:55:09;101888.19;;;19.11;47.42
23619;BME280;18207;32.078;34.818;2024-02-04T04:57:41;101888.47;;;19.09;47.69
23619;BME280;18207;32.078;34.818;2024-02-04T05:00:12;101899.06;;;19.07;47.39
23619;BME280;18207;32.078;34.818;2024-02-04T05:02:45;101894.63;;;19.06;47.64
23619;BME280;18207;32.078;34.818;2024-02-04T05:05:16;101893.25;;;19.04;47.88
23619;BME280;18207;32.078;34.818;2024-02-04T05:07:46;101897.47;;;19.01;47.23
23619;BME280;18207;32.078;34.818;2024-02-04T05:10:16;101898.28;;;19.02;47.70
23619;BME280;18207;32.078;34.818;2024-02-04T05:12:47;101896.63;;;19.01;47.87
23619;BME280;18207;32.078;34.818;2024-02-04T05:15:18;101886.63;;;19.00;47.67
23619;BME280;18207;32.078;34.818;2024-02-04T05:17:49;101893.34;;;18.99;47.90
23619;BME280;18207;32.078;34.818;2024-02-04T05:20:19;101898.06;;;18.98;47.89
23619;BME280;18207;32.078;34.818;2024-02-04T05:22:49;101891.69;;;18.98;47.40
23619;BME280;18207;32.078;34.818;2024-02-04T05:25:19;101895.59;;;18.97;47.89
23619;BME280;18207;32.078;34.818;2024-02-04T05:27:50;101898.66;;;18.95;47.75
23619;BME280;18207;32.078;34.818;2024-02-04T05:30:20;101900.31;;;18.96;47.87
23619;BME280;18207;32.078;34.818;2024-02-04T05:32:50;101893.38;;;18.94;47.32
23619;BME280;18207;32.078;34.818;2024-02-04T05:35:20;101888.94;;;18.93;47.54
23619;BME280;18207;32.078;34.818;2024-02-04T05:37:50;101887.28;;;18.92;47.62
23619;BME280;18207;32.078;34.818;2024-02-04T05:40:20;101890.06;;;18.92;47.58
23619;BME280;18207;32.078;34.818;2024-02-04T05:42:52;101890.38;;;18.90;47.65
23619;BME280;18207;32.078;34.818;2024-02-04T05:45:22;101899.03;;;18.89;47.62
23619;BME280;18207;32.078;34.818;2024-02-04T05:47:52;101894.59;;;18.88;47.33
23619;BME280;18207;32.078;34.818;2024-02-04T05:50:22;101897.66;;;18.87;47.42
23619;BME280;18207;32.078;34.818;2024-02-04T05:52:52;101895.16;;;18.85;47.76
23619;BME280;18207;32.078;34.818;2024-02-04T05:55:22;101897.09;;;18.85;47.79
23619;BME280;18207;32.078;34.818;2024-02-04T05:57:53;101891.53;;;18.85;47.44
23619;BME280;18207;32.078;34.818;2024-02-04T06:00:24;101897.41;;;18.83;47.59
23619;BME280;18207;32.078;34.818;2024-02-04T06:02:54;101882.13;;;18.81;47.17
23619;BME280;18207;32.078;34.818;2024-02-04T06:05:24;101883.25;;;18.80;47.07
23619;BME280;18207;32.078;34.818;2024-02-04T06:07:53;101886.34;;;18.78;47.12
23619;BME280;18207;32.078;34.818;2024-02-04T06:10:23;101884.97;;;18.76;47.69
23619;BME280;18207;32.078;34.818;2024-02-04T06:12:55;101883.34;;;18.75;47.25
23619;BME280;18207;32.078;34.818;2024-02-04T06:15:26;101882.78;;;18.73;47.09
23619;BME280;18207;32.078;34.818;2024-02-04T06:17:56;101885.56;;;18.73;47.39
23619;BME280;18207;32.078;34.818;2024-02-04T06:20:26;101893.94;;;18.73;47.26
23619;BME280;18207;32.078;34.818;2024-02-04T06:22:56;101894.22;;;18.71;47.42
23619;BME280;18207;32.078;34.818;2024-02-04T06:25:26;101889.19;;;18.73;47.65
23619;BME280;18207;32.078;34.818;2024-02-04T06:27:59;101898.31;;;18.79;47.99
23619;BME280;18207;32.078;34.818;2024-02-04T06:30:30;101899.88;;;18.85;48.13
23619;BME280;18207;32.078;34.818;2024-02-04T06:33:04;101892.56;;;18.93;48.13
23619;BME280;18207;32.078;34.818;2024-02-04T06:35:37;101879.66;;;19.02;48.13
23619;BME280;18207;32.078;34.818;2024-02-04T06:38:07;101878.69;;;19.12;48.30
23619;BME280;18207;32.078;34.818;2024-02-04T06:40:37;101878.28;;;19.23;48.25
23619;BME280;18207;32.078;34.818;2024-02-04T06:43:09;101879.78;;;19.34;48.26
23619;BME280;18207;32.078;34.818;2024-02-04T06:45:39;101884.09;;;19.45;48.13
23619;BME280;18207;32.078;34.818;2024-02-04T06:48:09;101883.94;;;19.55;47.94
23619;BME280;18207;32.078;34.818;2024-02-04T06:50:39;101888.22;;;19.66;48.09
23619;BME280;18207;32.078;34.818;2024-02-04T06:53:09;101893.66;;;19.76;47.62
23619;BME280;18207;32.078;34.818;2024-02-04T06:55:39;101904.66;;;19.86;47.69
23619;BME280;18207;32.078;34.818;2024-02-04T06:58:10;101910.09;;;19.96;47.87
23619;BME280;18207;32.078;34.818;2024-02-04T07:00:40;101901.03;;;20.04;47.74
23619;BME280;18207;32.078;34.818;2024-02-04T07:03:10;101914.84;;;20.14;48.10
23619;BME280;18207;32.078;34.818;2024-02-04T07:05:41;101905.47;;;20.23;48.36
23619;BME280;18207;32.078;34.818;2024-02-04T07:08:15;101906.97;;;20.34;47.53
23619;BME280;18207;32.078;34.818;2024-02-04T07:10:45;101900.06;;;20.45;48.07
23619;BME280;18207;32.078;34.818;2024-02-04T07:13:16;101905.13;;;20.57;48.07
23619;BME280;18207;32.078;34.818;2024-02-04T07:15:55;101895.13;;;20.69;48.25
23619;BME280;18207;32.078;34.818;2024-02-04T07:18:26;101898.28;;;20.81;48.12
23619;BME280;18207;32.078;34.818;2024-02-04T07:20:57;101899.72;;;20.92;48.04
23619;BME280;18207;32.078;34.818;2024-02-04T07:23:26;101911.22;;;21.04;47.63
23619;BME280;18207;32.078;34.818;2024-02-04T07:25:56;101925.81;;;21.14;47.86
23619;BME280;18207;32.078;34.818;2024-02-04T07:28:27;101925.59;;;21.24;47.77
23619;BME280;18207;32.078;34.818;2024-02-04T07:31:02;101940.81;;;21.32;47.95
23619;BME280;18207;32.078;34.818;2024-02-04T07:33:37;101937.09;;;21.36;47.72
23619;BME280;18207;32.078;34.818;2024-02-04T07:36:10;101925.50;;;21.43;47.38
23619;BME280;18207;32.078;34.818;2024-02-04T07:38:53;101933.22;;;21.46;47.64
23619;BME280;18207;32.078;34.818;2024-02-04T07:41:56;101933.75;;;21.48;47.27
23619;BME280;18207;32.078;34.818;2024-02-04T07:44:31;101937.06;;;21.50;47.12
23619;BME280;18207;32.078;34.818;2024-02-04T07:47:03;101936.22;;;21.49;47.25
23619;BME280;18207;32.078;34.818;2024-02-04T07:49:35;101947.41;;;21.49;47.11
23619;BME280;18207;32.078;34.818;2024-02-04T07:52:10;101950.53;;;21.48;46.91
23619;BME280;18207;32.078;34.818;2024-02-04T07:54:47;101967.94;;;21.45;46.65
23619;BME280;18207;32.078;34.818;2024-02-04T07:57:18;101989.81;;;21.43;46.88
23619;BME280;18207;32.078;34.818;2024-02-04T07:59:52;102008.00;;;21.40;46.70
23619;BME280;18207;32.078;34.818;2024-02-04T08:02:24;102012.28;;;21.38;46.58
23619;BME280;18207;32.078;34.818;2024-02-04T08:04:56;102026.56;;;21.36;46.81
23619;BME280;18207;32.078;34.818;2024-02-04T08:07:29;102016.53;;;21.35;46.63
23619;BME280;18207;32.078;34.818;2024-02-04T08:10:02;102007.28;;;21.35;46.54
23619;BME280;18207;32.078;34.818;2024-02-04T08:12:33;102003.47;;;21.31;46.44
23619;BME280;18207;32.078;34.818;2024-02-04T08:15:08;102001.91;;;21.25;46.08
23619;BME280;18207;32.078;34.818;2024-02-04T08:17:40;101999.53;;;21.18;46.61
23619;BME280;18207;32.078;34.818;2024-02-04T08:20:14;102000.75;;;21.12;46.35
23619;BME280;18207;32.078;34.818;2024-02-04T08:22:44;102001.47;;;21.04;46.61
23619;BME280;18207;32.078;34.818;2024-02-04T08:25:17;101991.03;;;20.96;46.54
23619;BME280;18207;32.078;34.818;2024-02-04T08:27:47;101990.59;;;20.89;46.38
23619;BME280;18207;32.078;34.818;2024-02-04T08:30:20;101994.59;;;20.83;46.72
23619;BME280;18207;32.078;34.818;2024-02-04T08:32:50;101986.63;;;20.77;46.63
23619;BME280;18207;32.078;34.818;2024-02-04T08:35:22;101984.19;;;20.70;46.40
23619;BME280;18207;32.078;34.818;2024-02-04T08:37:53;101973.13;;;20.65;46.78
23619;BME280;18207;32.078;34.818;2024-02-04T08:40:26;101979.63;;;20.61;46.67
23619;BME280;18207;32.078;34.818;2024-02-04T08:43:00;101963.47;;;20.58;46.88
23619;BME280;18207;32.078;34.818;2024-02-04T08:45:54;101978.66;;;20.52;46.62
23619;BME280;18207;32.078;34.818;2024-02-04T08:48:42;101976.78;;;20.48;46.60
23619;BME280;18207;32.078;34.818;2024-02-04T08:51:15;101969.03;;;20.45;46.46
23619;BME280;18207;32.078;34.818;2024-02-04T08:53:50;101964.88;;;20.42;46.67
23619;BME280;18207;32.078;34.818;2024-02-04T08:56:40;101960.75;;;20.40;47.11
23619;BME280;18207;32.078;34.818;2024-02-04T08:59:11;101964.13;;;20.37;47.31
23619;BME280;18207;32.078;34.818;2024-02-04T09:01:44;101960.00;;;20.34;46.75
23619;BME280;18207;32.078;34.818;2024-02-04T09:04:15;101953.03;;;20.32;47.28
23619;BME280;18207;32.078;34.818;2024-02-04T09:06:47;101951.69;;;20.29;46.93
23619;BME280;18207;32.078;34.818;2024-02-04T09:09:18;101954.81;;;20.28;46.65
23619;BME280;18207;32.078;34.818;2024-02-04T09:11:49;101947.03;;;20.25;47.00
23619;BME280;18207;32.078;34.818;2024-02-04T09:14:21;101945.38;;;20.24;46.83
23619;BME280;18207;32.078;34.818;2024-02-04T09:16:53;101948.16;;;20.24;46.92
23619;BME280;18207;32.078;34.818;2024-02-04T09:19:24;101948.47;;;20.22;47.45
23619;BME280;18207;32.078;34.818;2024-02-04T09:21:55;101944.34;;;20.20;47.14
23619;BME280;18207;32.078;34.818;2024-02-04T09:24:27;101949.91;;;20.20;47.20
23619;BME280;18207;32.078;34.818;2024-02-04T09:27:00;101946.06;;;20.16;47.21
23619;BME280;18207;32.078;34.818;2024-02-04T09:29:30;101947.19;;;20.15;47.34
23619;BME280;18207;32.078;34.818;2024-02-04T09:32:01;101943.88;;;20.13;47.25
23619;BME280;18207;32.078;34.818;2024-02-04T09:34:31;101941.38;;;20.11;47.28
23619;BME280;18207;32.078;34.818;2024-02-04T09:37:02;101939.19;;;20.08;46.84
23619;BME280;18207;32.078;34.818;2024-02-04T09:39:35;101931.13;;;20.07;47.03
23619;BME280;18207;32.078;34.818;2024-02-04T09:42:05;101924.22;;;20.04;47.01
23619;BME280;18207;32.078;34.818;2024-02-04T09:44:36;101922.03;;;20.01;47.11
23619;BME280;18207;32.078;34.818;2024-02-04T09:47:11;101924.28;;;19.99;46.97
23619;BME280;18207;32.078;34.818;2024-02-04T09:49:42;101915.69;;;19.96;47.19
23619;BME280;18207;32.078;34.818;2024-02-04T09:52:17;101905.63;;;19.95;47.35
23619;BME280;18207;32.078;34.818;2024-02-04T09:54:58;101905.94;;;19.93;47.23
23619;BME280;18207;32.078;34.818;2024-02-04T09:57:34;101902.63;;;19.91;47.65
23619;BME280;18207;32.078;34.818;2024-02-04T10:00:06;101901.81;;;19.91;47.31
23619;BME280;18207;32.078;34.818;2024-02-04T10:02:40;101892.59;;;19.90;47.55
23619;BME280;18207;32.078;34.818;2024-02-04T10:05:11;101892.31;;;19.92;47.48
23619;BME280;18207;32.078;34.818;2024-02-04T10:07:41;101883.09;;;19.91;47.96
23619;BME280;18207;32.078;34.818;2024-02-04T10:10:12;101888.34;;;19.93;47.43
23619;BME280;18207;32.078;34.818;2024-02-04T10:12:42;101884.44;;;19.94;47.52
23619;BME280;18207;32.078;34.818;2024-02-04T10:15:12;101881.66;;;19.94;47.90
23619;BME280;18207;32.078;34.818;2024-02-04T10:17:50;101867.94;;;19.97;48.19
23619;BME280;18207;32.078;34.818;2024-02-04T10:20:24;101860.41;;;19.98;48.15
23619;BME280;18207;32.078;34.818;2024-02-04T10:22:54;101854.25;;;20.01;47.71
23619;BME280;18207;32.078;34.818;2024-02-04T10:25:24;101847.53;;;20.02;47.82
23619;BME280;18207;32.078;34.818;2024-02-04T10:27:54;101834.06;;;20.04;47.72
23619;BME280;18207;32.078;34.818;2024-02-04T10:30:26;101829.88;;;20.06;48.26
23619;BME280;18207;32.078;34.818;2024-02-04T10:32:57;101823.97;;;20.08;48.35
23619;BME280;18207;32.078;34.818;2024-02-04T10:35:27;101831.75;;;20.11;48.29
23619;BME280;18207;32.078;34.818;2024-02-04T10:37:57;101816.34;;;20.13;48.10
23619;BME280;18207;32.078;34.818;2024-02-04T10:40:26;101819.34;;;20.17;47.93
23619;BME280;18207;32.078;34.818;2024-02-04T10:43:02;101807.56;;;20.20;48.34
23619;BME280;18207;32.078;34.818;2024-02-04T10:45:36;101808.91;;;20.22;47.99
23619;BME280;18207;32.078;34.818;2024-02-04T10:48:11;101809.44;;;20.24;47.94
23619;BME280;18207;32.078;34.818;2024-02-04T10:50:47;101801.28;;;20.28;48.35
23619;BME280;18207;32.078;34.818;2024-02-04T10:53:19;101801.47;;;20.31;48.09
23619;BME280;18207;32.078;34.818;2024-02-04T10:55:54;101795.28;;;20.34;48.18
23619;BME280;18207;32.078;34.818;2024-02-04T10:58:28;101801.06;;;20.38;48.28
23619;BME280;18207;32.078;34.818;2024-02-04T11:01:04;101805.22;;;20.40;48.48
23619;BME280;18207;32.078;34.818;2024-02-04T11:03:37;101804.28;;;20.45;48.66
23619;BME280;18207;32.078;34.818;2024-02-04T11:06:09;101799.22;;;20.47;48.76
23619;BME280;18207;32.078;34.818;2024-02-04T11:08:39;101807.81;;;20.50;48.50
23619;BME280;18207;32.078;34.818;2024-02-04T11:11:10;101811.13;;;20.52;48.08
23619;BME280;18207;32.078;34.818;2024-02-04T11:13:45;101804.94;;;20.55;48.34
23619;BME280;18207;32.078;34.818;2024-02-04T11:16:31;101799.03;;;20.57;48.51
23619;BME280;18207;32.078;34.818;2024-02-04T11:19:20;101798.69;;;20.58;48.17
23619;BME280;18207;32.078;34.818;2024-02-04T11:22:23;101799.22;;;20.60;47.94
23619;BME280;18207;32.078;34.818;2024-02-04T11:25:21;101798.91;;;20.62;48.47
23619;BME280;18207;32.078;34.818;2024-02-04T11:27:57;101807.28;;;20.62;48.50
23619;BME280;18207;32.078;34.818;2024-02-04T11:30:33;101793.03;;;20.63;48.32
23619;BME280;18207;32.078;34.818;2024-02-04T11:33:06;101800.75;;;20.66;48.73
23619;BME280;18207;32.078;34.818;2024-02-04T11:35:38;101796.53;;;20.68;48.34
23619;BME280;18207;32.078;34.818;2024-02-04T11:38:08;101803.47;;;20.71;48.38
23619;BME280;18207;32.078;34.818;2024-02-04T11:40:40;101808.44;;;20.74;48.60
23619;BME280;18207;32.078;34.818;2024-02-04T11:43:12;101798.06;;;20.74;48.17
23619;BME280;18207;32.078;34.818;2024-02-04T11:45:43;101805.88;;;20.77;48.45
23619;BME280;18207;32.078;34.818;2024-02-04T11:48:14;101799.66;;;20.80;48.35
23619;BME280;18207;32.078;34.818;2024-02-04T11:50:53;101792.63;;;20.83;48.35
23619;BME280;18207;32.078;34.818;2024-02-04T11:53:24;101795.94;;;20.85;48.59
23619;BME280;18207;32.078;34.818;2024-02-04T11:55:57;101790.84;;;20.87;48.61
23619;BME280;18207;32.078;34.818;2024-02-04T11:58:29;101784.97;;;20.88;48.71
23619;BME280;18207;32.078;34.818;2024-02-04T12:01:01;101792.69;;;20.91;48.65
23619;BME280;18207;32.078;34.818;2024-02-04T12:03:34;101794.88;;;20.94;48.63
23619;BME280;18207;32.078;34.818;2024-02-04T12:06:10;101797.34;;;20.96;48.97
23619;BME280;18207;32.078;34.818;2024-02-04T12:08:44;101799.00;;;20.97;48.97
23619;BME280;18207;32.078;34.818;2024-02-04T12:11:15;101795.59;;;21.00;48.65
23619;BME280;18207;32.078;34.818;2024-02-04T12:13:47;101799.44;;;21.04;48.89
23619;BME280;18207;32.078;34.818;2024-02-04T12:16:18;101793.19;;;21.07;48.79
23619;BME280;18207;32.078;34.818;2024-02-04T12:18:51;101785.00;;;21.10;48.72
23619;BME280;18207;32.078;34.818;2024-02-04T12:21:23;101789.97;;;21.13;48.99
23619;BME280;18207;32.078;34.818;2024-02-04T12:23:53;101771.75;;;21.16;48.64
23619;BME280;18207;32.078;34.818;2024-02-04T12:26:23;101776.72;;;21.19;48.44
23619;BME280;18207;32.078;34.818;2024-02-04T12:28:54;101778.38;;;21.20;48.46
23619;BME280;18207;32.078;34.818;2024-02-04T12:31:26;101770.50;;;21.22;48.51
23619;BME280;18207;32.078;34.818;2024-02-04T12:33:59;101784.16;;;21.23;48.79
23619;BME280;18207;32.078;34.818;2024-02-04T12:36:32;101773.50;;;21.25;48.50
23619;BME280;18207;32.078;34.818;2024-02-04T12:39:02;101771.22;;;21.27;48.29
23619;BME280;18207;32.078;34.818;2024-02-04T12:41:35;101766.44;;;21.28;48.80
23619;BME280;18207;32.078;34.818;2024-02-04T12:44:05;101757.75;;;21.29;48.55
23619;BME280;18207;32.078;34.818;2024-02-04T12:46:35;101771.41;;;21.31;48.42
23619;BME280;18207;32.078;34.818;2024-02-04T12:49:05;101762.69;;;21.32;48.61
23619;BME280;18207;32.078;34.818;2024-02-04T12:51:36;101758.75;;;21.33;48.14
23619;BME280;18207;32.078;34.818;2024-02-04T12:54:08;101756.81;;;21.34;48.23
23619;BME280;18207;32.078;34.818;2024-02-04T12:56:44;101764.84;;;21.35;48.26
23619;BME280;18207;32.078;34.818;2024-02-04T12:59:28;101763.72;;;21.36;48.41
23619;BME280;18207;32.078;34.818;2024-02-04T13:02:00;101772.09;;;21.36;48.44
23619;BME280;18207;32.078;34.818;2024-02-04T13:04:36;101770.97;;;21.37;48.22
23619;BME280;18207;32.078;34.818;2024-02-04T13:07:10;101770.63;;;21.39;48.24